This is the latest recevied weather packets stored in our database for station/object TG5ALY-15. If no packets are shown the sender has not sent any weather packets the latest 10 day(s).
| Time | Temp. | Humidity | Pressure | Rain* | Wind** | Luminosity | Snow |
|---|---|---|---|---|---|---|---|
| 1777865849 | 12.22° C | 97% | 1032.6 hPa | 0 mm | - | 0 W/m² | - |
| 1777864647 | 12.78° C | 97% | 1032.1 hPa | 0 mm | - | 0 W/m² | - |
| 1777863446 | 12.78° C | 97% | 1032.1 hPa | 0 mm | - | 0 W/m² | - |
| 1777862246 | 12.22° C | 97% | 1032.6 hPa | 0 mm | - | 0 W/m² | - |
| 1777861043 | 12.22° C | 97% | 1032.6 hPa | 0 mm | - | 0 W/m² | - |
| 1777859842 | 11.67° C | 97% | 1032.1 hPa | 23.11 mm | - | 0 W/m² | - |
| 1777858640 | 12.22° C | 97% | 1032.6 hPa | 23.11 mm | - | 0 W/m² | - |
| 1777856938 | 13.33° C | 90% | 1031.7 hPa | 4.57 mm | - | 0 W/m² | - |
| 1777855736 | 13.33° C | 90% | 1031.7 hPa | 4.57 mm | - | 0 W/m² | - |
| 1777854534 | 14.44° C | 89% | 1031.7 hPa | 0.76 mm | - | 0 W/m² | - |
| 1777853334 | 14.44° C | 86% | 1030.8 hPa | 0 mm | - | 1 W/m² | - |
| 1777852129 | 15.56° C | 86% | 1030.4 hPa | 1.52 mm | - | 1 W/m² | - |
| 1777850929 | 15.56° C | 84% | 1029.9 hPa | 1.52 mm | - | 12 W/m² | - |
| 1777849729 | 17.78° C | 68% | 1029.2 hPa | 0 mm | - | 7 W/m² | - |
| 1777848528 | 19.44° C | 58% | 1028.3 hPa | 0 mm | - | 48 W/m² | - |
| 1777847327 | 20° C | 54% | 1028.7 hPa | 0 mm | - | 122 W/m² | - |
| 1777846124 | 21.11° C | 50% | 1028.3 hPa | 0 mm | - | 196 W/m² | - |
| 1777844918 | 21.67° C | 47% | 1028.7 hPa | 0 mm | - | 286 W/m² | - |
| 1777843718 | 21.67° C | 45% | 1028.7 hPa | 0 mm | - | 572 W/m² | - |
| 1777842517 | 21.11° C | 46% | 1029.2 hPa | 0 mm | - | 396 W/m² | - |
| 1777841314 | 21.11° C | 49% | 1029.2 hPa | 0 mm | - | 324 W/m² | - |
| 1777840109 | 21.67° C | 47% | 1029.2 hPa | 0 mm | - | 884 W/m² | - |
| 1777838905 | 21.11° C | 50% | 1029.5 hPa | 0 mm | - | 882 W/m² | - |
| 1777837704 | 20.56° C | 53% | 1029.5 hPa | 0 mm | - | 990 W/m² | - |
| 1777836500 | 19.44° C | 59% | 1030.4 hPa | 0 mm | - | 346 W/m² | - |
* Rain latest hour (hover to see other rain measurements)
** Current wind speed in m/s (hover to see current wind gust speed)